首页
METAR-TAF:

METAR-TAF

机场 :

桂林兩江國際機場

桂林, 中华人民共和国

纬度: 25-20N, 经度: 110-18E, 海拔: 166米

当前天气观测

该预报发布于59分钟前的01:00 UTC
风速12节,风向
温度 30°C
湿度 66%
气压 1008 hPa
能见度10公里或以上
散云层高于4000英尺
多云层高于6000英尺

METAR: ZGKL 260100Z 18006MPS 9999 SCT040 BKN060 30/23 Q1008 NOSIG

时间: 09:59 (01:59 UTC)

预报

该预报发布于6小时和46分钟前的19:13 UTC
预报有效从26日的 00点(UTC)到 26日的 24点(UTC)
风速10节,风向
能见度10公里或以上
散云层高于5000英尺
短暂存在
从 26日的 10点(UTC)到 26日的 16点(UTC)
少量云层高于3300英尺, 积雨云.
阴天层高于4000英尺
雷暴, 雨

TAF: ZGKL 251913Z 2600/2624 18005MPS 9999 SCT050 TX34/2608Z TN26/2622Z TEMPO 2610/2616 TSRA FEW033CB OVC040

超过4000个机场的气象观测和天气预报(METAR&TAF报告)。

可查询的气象台以黄色和红色小点在地图上表示。

将鼠标移到小点上方,可查看气象台名称。

然后点击查看天气观测和预报。

如需切换地图:点击带黑十字的绿色按钮放大地图;点击带横线的绿色按钮缩小地图;或者点击绿色箭头查看邻近地区的地图。


METAR-TAF: